Time;durP1;ratioP1;P1;durP2;ratioP2;P2;SDS_P1;SDS_P2;PMS_P1;PMS_P2;Temp;Humidity;BMP_temperature;BMP_pressure;BME280_temperature;BME280_humidity;BME280_pressure;Samples;Min_cycle;Max_cycle;Signal;HPM_P1;HPM_P2
2021/07/15 00:00:09;;;;;;;4.00;2.20;;;;;;;19.98;75.11;101126.00;3598280;40;20233;-82
2021/07/15 00:02:34;;;;;;;2.10;1.90;;;;;;;19.99;74.83;101112.16;3599019;40;20249;-81
2021/07/15 00:04:59;;;;;;;2.73;2.00;;;;;;;20.00;75.23;101108.66;3597240;40;20267;-81
2021/07/15 00:07:25;;;;;;;2.10;1.90;;;;;;;20.00;75.23;101096.50;3599043;40;20225;-80
2021/07/15 00:09:50;;;;;;;2.77;1.93;;;;;;;20.01;74.65;101098.25;3590264;40;20256;-82
2021/07/15 00:12:16;;;;;;;1.70;1.50;;;;;;;20.05;74.61;101099.06;3599376;40;20236;-82
2021/07/15 00:14:42;;;;;;;1.97;1.87;;;;;;;20.06;74.54;101104.25;3598888;40;20660;-81
2021/07/15 00:17:08;;;;;;;3.97;1.90;;;;;;;20.06;74.47;101103.38;3599449;40;20307;-82
2021/07/15 00:19:33;;;;;;;4.27;2.53;;;;;;;19.95;75.11;101113.06;3598979;40;20268;-82
2021/07/15 00:21:59;;;;;;;2.27;2.00;;;;;;;19.96;74.85;101113.06;3597859;40;20241;-81
2021/07/15 00:24:26;;;;;;;1.43;1.33;;;;;;;19.94;74.96;101107.00;3597635;40;20225;-81
2021/07/15 00:26:52;;;;;;;2.10;1.73;;;;;;;19.93;74.87;101094.88;3596674;40;20217;-81
2021/07/15 00:29:19;;;;;;;2.33;2.13;;;;;;;19.94;74.98;101090.56;3596995;40;20244;-81
2021/07/15 00:31:44;;;;;;;2.17;1.90;;;;;;;19.93;75.02;101088.81;3598200;40;20233;-82
2021/07/15 00:34:09;;;;;;;2.07;1.87;;;;;;;19.95;74.68;101079.28;3598354;40;20248;-82
2021/07/15 00:36:35;;;;;;;2.33;2.13;;;;;;;19.96;74.72;101078.38;3598633;40;20850;-82
2021/07/15 00:39:02;;;;;;;1.90;1.80;;;;;;;19.94;74.93;101069.75;3598218;40;20229;-81
2021/07/15 00:41:28;;;;;;;3.27;1.97;;;;;;;19.94;74.74;101065.41;3598549;40;20233;-82
2021/07/15 00:43:53;;;;;;;3.57;2.90;;;;;;;19.88;75.13;101065.50;3598227;40;20229;-81
2021/07/15 00:46:18;;;;;;;3.37;2.43;;;;;;;19.89;75.20;101072.41;3597982;40;20233;-81
2021/07/15 00:48:43;;;;;;;3.13;2.40;;;;;;;19.85;75.17;101067.31;3597793;40;20480;-81
2021/07/15 00:51:09;;;;;;;2.43;1.93;;;;;;;19.85;75.01;101077.69;3597591;40;20229;-81
2021/07/15 00:53:36;;;;;;;4.80;2.40;;;;;;;19.84;75.32;101084.63;3597658;40;20304;-80
2021/07/15 00:56:01;;;;;;;3.20;2.80;;;;;;;19.77;75.72;101087.34;3588746;40;20262;-81
2021/07/15 00:58:26;;;;;;;2.73;2.30;;;;;;;19.76;75.68;101083.88;3597576;40;20233;-80
2021/07/15 01:00:52;;;;;;;1.77;1.67;;;;;;;19.77;75.54;101087.34;3597531;40;20221;-81
2021/07/15 01:03:19;;;;;;;2.37;1.90;;;;;;;19.78;75.55;101076.94;3597803;40;20292;-81
2021/07/15 01:05:52;;;;;;;5.20;2.60;;;;;;;19.73;75.84;101086.53;3596893;40;20217;-81
2021/07/15 01:08:18;;;;;;;3.30;2.70;;;;;;;19.72;75.94;101089.16;3597445;40;20261;-81
2021/07/15 01:10:58;;;;;;;4.93;2.40;;;;;;;19.75;75.66;101094.28;3597091;40;20566;-81
2021/07/15 01:13:48;;;;;;;3.27;2.00;;;;;;;19.76;75.60;101091.66;3597670;40;20264;-81
2021/07/15 01:16:26;;;;;;;2.40;2.03;;;;;;;19.80;75.64;101102.91;3597453;40;20290;-81
2021/07/15 01:19:19;;;;;;;5.40;2.90;;;;;;;19.69;76.24;101097.84;3597480;40;20837;-80
2021/07/15 01:22:16;;;;;;;3.77;2.37;;;;;;;19.67;75.76;101096.16;3597130;40;20274;-80
2021/07/15 01:25:09;;;;;;;7.90;2.53;;;;;;;19.65;76.13;101100.50;3597185;40;20602;-81
2021/07/15 01:27:55;;;;;;;4.07;2.37;;;;;;;19.61;76.16;101107.47;3586905;40;20241;-81
2021/07/15 01:30:42;;;;;;;4.60;2.97;;;;;;;19.60;76.44;101110.97;3588410;40;20568;-82
2021/07/15 01:33:16;;;;;;;2.80;2.17;;;;;;;19.60;76.20;101110.97;3587116;40;20246;-81
2021/07/15 01:35:51;;;;;;;1.97;1.50;;;;;;;19.66;76.02;101120.41;3588406;40;20251;-80
2021/07/15 01:38:19;;;;;;;6.43;2.57;;;;;;;19.69;76.02;101113.44;3588101;40;20237;-80
2021/07/15 01:40:54;;;;;;;2.40;2.13;;;;;;;19.69;76.02;101109.97;3597766;40;20229;-81
2021/07/15 01:43:26;;;;;;;4.03;1.77;;;;;;;19.70;76.01;101120.34;3597802;40;20247;-82
2021/07/15 01:45:52;;;;;;;4.93;2.63;;;;;;;19.67;76.39;101122.13;3596291;40;20233;-80
2021/07/15 01:48:18;;;;;;;4.30;2.20;;;;;;;19.68;76.17;101116.06;3588074;40;20230;-81
2021/07/15 01:50:44;;;;;;;3.37;2.13;;;;;;;19.72;76.34;101120.34;3596820;40;20243;-81
2021/07/15 01:53:10;;;;;;;2.80;2.50;;;;;;;19.76;76.09;101135.84;3597501;40;20237;-81
2021/07/15 01:55:36;;;;;;;6.43;2.50;;;;;;;19.78;76.18;101143.63;3597046;40;20218;-81
2021/07/15 01:58:02;;;;;;;3.33;1.83;;;;;;;19.78;76.11;101144.50;3596740;40;20222;-81
2021/07/15 02:00:28;;;;;;;2.67;2.00;;;;;;;19.92;75.82;101152.09;3587928;40;20225;-81
2021/07/15 02:02:54;;;;;;;2.37;2.17;;;;;;;19.85;76.03;101153.09;3597273;40;20295;-81
2021/07/15 02:05:21;;;;;;;3.33;1.97;;;;;;;19.78;75.74;101151.44;3597555;40;20217;-82
2021/07/15 02:07:47;;;;;;;4.60;2.40;;;;;;;19.72;76.53;101152.34;3597640;40;20226;-82
2021/07/15 02:10:19;;;;;;;5.23;2.53;;;;;;;19.70;76.66;101153.25;3597015;40;20217;-81
2021/07/15 02:12:44;;;;;;;9.53;2.60;;;;;;;19.69;76.37;101144.63;3597672;40;20277;-81
2021/07/15 02:15:09;;;;;;;6.90;2.40;;;;;;;19.72;76.01;101144.56;3588307;40;20237;-81
2021/07/15 02:17:39;;;;;;;6.17;2.57;;;;;;;19.60;76.47;101146.47;3597725;40;20241;-81
2021/07/15 02:20:10;;;;;;;5.70;2.20;;;;;;;19.57;76.07;101144.75;3599162;40;20222;-81
2021/07/15 02:22:36;;;;;;;3.77;2.13;;;;;;;19.55;76.12;101135.28;3598606;40;20237;-82
2021/07/15 02:25:05;;;;;;;2.97;1.77;;;;;;;19.54;76.21;101123.16;3599451;40;20217;-81
2021/07/15 02:27:31;;;;;;;3.50;1.97;;;;;;;19.55;76.20;101132.69;3599593;40;20216;-82
2021/07/15 02:29:56;;;;;;;2.47;2.27;;;;;;;19.54;75.99;101134.44;3599012;40;20728;-82
2021/07/15 02:32:21;;;;;;;2.87;2.00;;;;;;;19.53;76.50;101137.88;3589389;40;20241;-82
2021/07/15 02:34:54;;;;;;;2.03;1.80;;;;;;;19.56;76.37;101136.97;3597907;40;20229;-80
2021/07/15 02:37:25;;;;;;;1.63;1.53;;;;;;;19.54;76.63;101139.63;3598597;40;20240;-81
2021/07/15 02:39:50;;;;;;;1.70;1.60;;;;;;;19.54;76.39;101146.56;3598417;40;20281;-80
2021/07/15 02:42:15;;;;;;;4.07;1.80;;;;;;;19.54;76.65;101144.81;3589683;40;20256;-81
2021/07/15 02:44:42;;;;;;;2.50;2.10;;;;;;;19.53;76.38;101143.09;3598075;40;20225;-81
2021/07/15 02:47:08;;;;;;;2.20;2.00;;;;;;;19.53;76.85;101145.69;3598639;40;20213;-81
2021/07/15 02:49:34;;;;;;;2.40;2.00;;;;;;;19.54;76.34;101149.16;3598285;40;20234;-81
2021/07/15 02:51:59;;;;;;;2.10;1.80;;;;;;;19.51;76.47;101163.03;3598160;40;20335;-81
2021/07/15 02:54:24;;;;;;;7.27;2.10;;;;;;;19.53;76.19;101169.06;3598645;40;20224;-81
2021/07/15 02:57:03;;;;;;;4.20;2.40;;;;;;;19.53;76.51;101176.03;3598727;40;20756;-81
2021/07/15 02:59:46;;;;;;;4.60;2.47;;;;;;;19.53;76.66;101181.22;3598335;40;20236;-80
2021/07/15 03:02:24;;;;;;;3.77;2.10;;;;;;;19.53;76.53;101178.63;3598130;40;20244;-81
2021/07/15 03:05:10;;;;;;;3.00;1.87;;;;;;;19.54;76.51;101181.19;3590366;40;20607;-80
2021/07/15 03:07:38;;;;;;;4.97;2.37;;;;;;;19.54;76.47;101177.72;3599289;40;20619;-83
2021/07/15 03:10:05;;;;;;;5.10;2.43;;;;;;;19.52;76.32;101164.75;3599165;40;20228;-82
2021/07/15 03:12:36;;;;;;;4.53;2.43;;;;;;;19.50;76.10;101150.94;3598741;40;20244;-82
2021/07/15 03:15:03;;;;;;;3.67;2.13;;;;;;;19.49;76.19;101137.97;3599407;40;20279;-82
2021/07/15 03:17:36;;;;;;;3.93;2.30;;;;;;;19.48;76.24;101146.63;3598986;40;20221;-82
2021/07/15 03:20:08;;;;;;;2.40;2.20;;;;;;;19.42;76.54;101144.97;3598214;40;20261;-81
2021/07/15 03:22:38;;;;;;;3.90;2.43;;;;;;;19.37;76.45;101138.09;3589483;40;20261;-82
2021/07/15 03:25:10;;;;;;;4.30;2.30;;;;;;;19.33;76.60;101147.66;3589982;40;20217;-81
2021/07/15 03:27:38;;;;;;;2.50;2.30;;;;;;;19.29;76.74;101156.34;3599071;40;20224;-81
2021/07/15 03:30:07;;;;;;;3.73;2.20;;;;;;;19.32;76.50;101168.44;3598247;40;20229;-81
2021/07/15 03:32:34;;;;;;;2.60;2.20;;;;;;;19.32;76.70;101156.34;3598550;40;20229;-82
2021/07/15 03:35:01;;;;;;;2.23;1.97;;;;;;;19.36;76.48;101158.03;3589390;40;20236;-81
2021/07/15 03:37:27;;;;;;;2.27;1.83;;;;;;;19.37;76.31;101145.88;3598873;40;20251;-82
2021/07/15 03:39:54;;;;;;;1.80;1.70;;;;;;;19.37;76.62;101151.94;3588934;40;20230;-82
2021/07/15 03:42:20;;;;;;;3.50;2.60;;;;;;;19.42;76.49;101154.47;3597627;40;20244;-81
2021/07/15 03:44:47;;;;;;;4.63;2.07;;;;;;;19.40;76.26;101156.25;3597953;40;20261;-82
2021/07/15 03:47:13;;;;;;;4.47;3.17;;;;;;;19.33;76.41;101162.38;3597453;40;20256;-81
2021/07/15 03:49:41;;;;;;;3.97;2.17;;;;;;;19.33;76.53;101164.97;3597013;40;20222;-81
2021/07/15 03:52:11;;;;;;;3.77;2.40;;;;;;;19.31;76.74;101167.63;3597264;40;20253;-81
2021/07/15 03:54:39;;;;;;;5.40;2.60;;;;;;;19.32;76.53;101171.91;3597070;40;20233;-80
2021/07/15 03:57:05;;;;;;;3.07;2.33;;;;;;;19.35;76.37;101174.47;3597238;40;20225;-82
2021/07/15 03:59:32;;;;;;;3.33;2.60;;;;;;;19.37;76.44;101172.72;3597631;40;20233;-81
2021/07/15 04:02:03;;;;;;;5.37;2.43;;;;;;;19.42;76.03;101173.53;3598322;40;20253;-82
2021/07/15 04:04:31;;;;;;;4.13;3.10;;;;;;;19.39;75.99;101176.16;3598769;40;20221;-81
2021/07/15 04:06:59;;;;;;;4.90;2.03;;;;;;;19.45;75.63;101183.91;3598422;40;20227;-81
2021/07/15 04:09:26;;;;;;;10.43;3.27;;;;;;;19.26;76.72;101186.72;3598489;40;20253;-81
2021/07/15 04:11:52;;;;;;;6.17;3.10;;;;;;;19.23;76.45;101179.81;3598367;40;20253;-82
2021/07/15 04:14:29;;;;;;;6.23;3.00;;;;;;;19.20;76.54;101186.75;3598275;40;20295;-82
2021/07/15 04:17:09;;;;;;;4.93;3.47;;;;;;;19.20;76.43;101192.78;3598402;40;20221;-82
2021/07/15 04:19:36;;;;;;;4.73;3.23;;;;;;;19.15;76.85;101196.28;3598435;40;20236;-81
2021/07/15 04:22:05;;;;;;;5.83;3.10;;;;;;;19.16;76.55;101196.28;3598478;40;20442;-81
2021/07/15 04:24:33;;;;;;;4.97;3.73;;;;;;;19.17;76.65;101186.75;3598385;40;20256;-81
2021/07/15 04:26:59;;;;;;;4.20;3.43;;;;;;;19.14;76.65;101194.56;3596688;40;20244;-81
2021/07/15 04:29:26;;;;;;;4.63;3.50;;;;;;;19.15;76.54;101197.16;3596998;40;20229;-81
2021/07/15 04:32:04;;;;;;;4.77;4.10;;;;;;;19.17;76.54;101199.75;3588408;40;20245;-82
2021/07/15 04:34:31;;;;;;;6.43;3.90;;;;;;;19.11;77.29;101199.81;3587771;40;20520;-81
2021/07/15 04:36:57;;;;;;;6.27;4.20;;;;;;;19.06;76.84;101193.78;3596638;40;20557;-81
2021/07/15 04:39:26;;;;;;;6.20;4.20;;;;;;;19.04;77.17;101195.53;3595854;40;20237;-81
2021/07/15 04:41:53;;;;;;;5.70;3.10;;;;;;;19.13;76.59;101200.66;3595737;40;20241;-80
2021/07/15 04:44:20;;;;;;;5.35;3.17;;;;;;;19.18;76.36;101196.28;3595113;40;20233;-79
2021/07/15 04:46:46;;;;;;;9.07;3.57;;;;;;;19.17;76.31;101202.34;3594081;40;20217;-80
2021/07/15 04:49:12;;;;;;;6.80;4.30;;;;;;;19.13;76.34;101193.75;3594315;40;20227;-81
2021/07/15 04:51:40;;;;;;;7.30;4.10;;;;;;;19.16;76.56;101200.63;3595914;40;20237;-81
2021/07/15 04:54:06;;;;;;;8.37;4.00;;;;;;;19.08;77.17;101202.44;3595875;40;20248;-80
2021/07/15 04:56:33;;;;;;;4.93;3.37;;;;;;;19.13;76.62;101203.25;3585307;40;20605;-81
2021/07/15 04:59:01;;;;;;;5.20;2.63;;;;;;;19.19;76.58;101203.19;3593627;40;20273;-81
2021/07/15 05:01:26;;;;;;;5.90;3.90;;;;;;;19.23;76.38;101202.31;3595470;40;20664;-81
2021/07/15 05:03:51;;;;;;;4.13;3.00;;;;;;;19.26;76.11;101194.50;3596002;40;20221;-81
2021/07/15 05:06:19;;;;;;;6.77;4.13;;;;;;;19.23;76.06;101194.53;3595523;40;20217;-80
2021/07/15 05:08:44;;;;;;;4.70;4.17;;;;;;;19.25;76.23;101197.97;3595614;40;20240;-81
2021/07/15 05:11:12;;;;;;;3.60;2.97;;;;;;;19.33;76.00;101188.34;3596208;40;20288;-81
2021/07/15 05:13:37;;;;;;;3.43;3.00;;;;;;;19.48;75.66;101193.41;3596072;40;20600;-81
2021/07/15 05:16:03;;;;;;;3.77;3.10;;;;;;;19.60;75.55;101191.50;3596334;40;20315;-81
2021/07/15 05:18:28;;;;;;;4.43;3.50;;;;;;;19.65;75.26;101184.53;3596418;40;20235;-80
2021/07/15 05:20:54;;;;;;;4.03;2.77;;;;;;;19.79;74.76;101187.81;3595510;40;20233;-78
2021/07/15 05:23:20;;;;;;;5.83;3.23;;;;;;;19.90;74.69;101185.91;3595969;40;20245;-81
2021/07/15 05:25:46;;;;;;;6.00;3.43;;;;;;;19.90;74.94;101191.13;3596101;40;20229;-80
2021/07/15 05:28:11;;;;;;;5.50;3.90;;;;;;;19.92;74.77;101197.19;3595746;40;20729;-80
2021/07/15 05:30:36;;;;;;;5.10;3.73;;;;;;;20.03;74.30;101195.28;3595630;40;20220;-79
2021/07/15 05:33:02;;;;;;;2.50;2.30;;;;;;;20.08;74.41;101197.88;3595534;40;20244;-81
2021/07/15 05:35:27;;;;;;;4.30;2.42;;;;;;;20.22;74.22;101203.75;3595710;40;20342;-79
2021/07/15 05:37:52;;;;;;;7.27;3.77;;;;;;;20.26;73.80;101195.03;3586682;40;20248;-81
2021/07/15 05:40:18;;;;;;;5.10;3.40;;;;;;;20.27;73.42;101201.94;3595290;40;20217;-80
2021/07/15 05:42:43;;;;;;;2.57;2.37;;;;;;;20.34;73.48;101199.22;3586339;40;20233;-81
2021/07/15 05:45:09;;;;;;;3.00;2.70;;;;;;;20.46;73.09;101192.97;3595668;40;20220;-81
2021/07/15 05:47:34;;;;;;;3.43;3.13;;;;;;;20.65;72.49;101200.47;3586691;40;20245;-80
2021/07/15 05:50:00;;;;;;;2.83;2.60;;;;;;;20.65;72.14;101194.41;3595320;40;20214;-81
2021/07/15 05:52:25;;;;;;;2.93;2.63;;;;;;;20.74;72.05;101197.72;3596745;40;20527;-81
2021/07/15 05:54:50;;;;;;;2.60;2.20;;;;;;;20.82;71.86;101205.41;3597308;40;20244;-81
2021/07/15 05:57:16;;;;;;;4.10;2.80;;;;;;;20.87;71.42;101203.59;3597236;40;20264;-81
2021/07/15 05:59:41;;;;;;;2.10;1.97;;;;;;;20.92;71.40;101202.63;3597157;40;20292;-81
2021/07/15 06:02:08;;;;;;;3.00;2.07;;;;;;;20.99;70.77;101200.78;3597232;40;20603;-81
2021/07/15 06:04:33;;;;;;;2.73;2.53;;;;;;;21.07;70.85;101204.13;3597030;40;20271;-80
2021/07/15 06:06:59;;;;;;;3.53;2.40;;;;;;;21.15;70.36;101212.69;3596994;40;20631;-80
2021/07/15 06:09:24;;;;;;;2.20;2.00;;;;;;;21.21;70.30;101218.63;3596876;40;20218;-81
2021/07/15 06:11:49;;;;;;;2.20;2.00;;;;;;;21.24;69.77;101222.94;3588138;40;20268;-81
2021/07/15 06:14:15;;;;;;;2.17;2.07;;;;;;;21.23;69.86;101229.03;3596758;40;20240;-81
2021/07/15 06:16:40;;;;;;;3.53;2.23;;;;;;;21.27;70.66;101228.94;3588304;40;20233;-81
2021/07/15 06:19:05;;;;;;;3.73;1.80;;;;;;;21.39;70.09;101230.47;3596716;40;20233;-81
2021/07/15 06:21:31;;;;;;;2.70;2.50;;;;;;;21.51;69.72;101230.25;3596598;40;20229;-81
2021/07/15 06:23:56;;;;;;;2.97;2.37;;;;;;;21.62;69.16;101231.75;3597178;40;20237;-81
2021/07/15 06:26:22;;;;;;;2.90;2.70;;;;;;;21.86;69.05;101233.03;3596785;40;20302;-81
2021/07/15 06:28:47;;;;;;;3.60;2.27;;;;;;;22.00;68.45;101244.03;3596932;40;20217;-81
2021/07/15 06:31:12;;;;;;;5.03;2.97;;;;;;;22.20;67.42;101247.13;3597184;40;20213;-82
2021/07/15 06:33:38;;;;;;;3.83;2.83;;;;;;;22.36;66.00;101251.09;3596344;40;20249;-81
2021/07/15 06:36:06;;;;;;;3.60;2.17;;;;;;;22.34;67.38;101255.50;3596903;40;20236;-81
2021/07/15 06:38:33;;;;;;;3.73;3.20;;;;;;;22.55;66.72;101243.75;3596798;40;20225;-81
2021/07/15 06:41:01;;;;;;;5.53;3.20;;;;;;;22.60;66.41;101241.91;3596764;40;20225;-81
2021/07/15 06:43:26;;;;;;;3.87;3.23;;;;;;;22.74;65.12;101239.81;3597023;40;20264;-81
2021/07/15 06:45:51;;;;;;;2.60;2.13;;;;;;;22.73;65.80;101244.16;3596700;40;20774;-81
2021/07/15 06:48:17;;;;;;;2.30;2.10;;;;;;;22.86;65.83;101244.72;3596912;40;20239;-82
2021/07/15 06:50:43;;;;;;;3.95;2.50;;;;;;;22.98;64.11;101242.66;3596920;40;20270;-82
2021/07/15 06:53:08;;;;;;;3.20;2.63;;;;;;;23.07;63.90;101247.66;3596526;40;20248;-82
2021/07/15 06:55:33;;;;;;;2.55;2.35;;;;;;;23.11;63.90;101248.47;3596545;40;20259;-81
2021/07/15 06:57:59;;;;;;;2.35;2.15;;;;;;;23.22;63.90;101241.22;3595743;40;20233;-81
2021/07/15 07:00:24;;;;;;;2.20;2.10;;;;;;;23.36;63.15;101242.59;3596884;40;20283;-82
2021/07/15 07:02:50;;;;;;;2.28;2.08;;;;;;;23.50;62.69;101245.69;3596405;40;20643;-80
2021/07/15 07:05:16;;;;;;;2.30;1.90;;;;;;;23.72;61.74;101253.81;3596832;40;20493;-82
2021/07/15 07:07:41;;;;;;;3.53;2.30;;;;;;;23.71;61.31;101259.94;3596756;40;20750;-80
2021/07/15 07:10:10;;;;;;;4.32;2.53;;;;;;;23.57;61.90;101255.09;3587572;40;20230;-81
2021/07/15 07:12:36;;;;;;;3.20;2.15;;;;;;;23.47;62.04;101251.00;3596683;40;20237;-81
2021/07/15 07:15:02;;;;;;;4.43;2.45;;;;;;;23.46;61.52;101256.25;3596341;40;20233;-79
2021/07/15 07:17:27;;;;;;;2.97;2.17;;;;;;;23.31;61.61;101268.00;3596731;40;20221;-81
2021/07/15 07:19:52;;;;;;;4.53;2.28;;;;;;;23.21;62.15;101283.94;3596980;40;20546;-82
2021/07/15 07:22:18;;;;;;;1.85;1.75;;;;;;;23.16;62.49;101272.72;3594782;40;20248;-81
2021/07/15 07:24:43;;;;;;;3.08;2.25;;;;;;;23.15;62.55;101271.00;3597257;40;20554;-85
2021/07/15 07:27:08;;;;;;;3.47;2.53;;;;;;;23.14;61.76;101271.88;3596760;40;20217;-81
2021/07/15 07:29:33;;;;;;;2.47;2.22;;;;;;;23.16;62.24;101268.34;3596670;40;20227;-81
2021/07/15 07:31:59;;;;;;;2.97;2.28;;;;;;;23.21;61.88;101263.03;3596386;40;20237;-81
2021/07/15 07:34:24;;;;;;;2.50;2.25;;;;;;;23.40;62.01;101251.22;3596653;40;20330;-82
2021/07/15 07:36:49;;;;;;;3.85;2.63;;;;;;;23.68;60.91;101254.78;3596751;40;20237;-82
2021/07/15 07:39:15;;;;;;;2.97;2.70;;;;;;;23.73;60.87;101253.78;3587355;40;20237;-82
2021/07/15 07:41:41;;;;;;;2.92;2.63;;;;;;;23.64;60.31;101259.25;3596219;40;20256;-81
2021/07/15 07:44:06;;;;;;;2.45;2.25;;;;;;;23.67;60.58;101260.94;3596342;40;20245;-81
2021/07/15 07:46:31;;;;;;;2.72;2.10;;;;;;;23.55;60.59;101259.50;3596385;40;20225;-82
2021/07/15 07:48:57;;;;;;;2.92;2.30;;;;;;;23.45;60.93;101257.16;3596274;40;20770;-81
2021/07/15 07:51:22;;;;;;;4.00;2.35;;;;;;;23.44;60.98;101261.53;3596511;40;20237;-82
2021/07/15 07:53:48;;;;;;;2.95;2.13;;;;;;;23.35;60.96;101255.69;3596456;40;20635;-82
2021/07/15 07:56:14;;;;;;;2.40;2.20;;;;;;;23.32;61.30;101261.88;3596628;40;20244;-82
2021/07/15 07:58:40;;;;;;;2.58;1.90;;;;;;;23.32;60.97;101268.84;3596611;40;20241;-82
2021/07/15 08:01:05;;;;;;;2.40;2.13;;;;;;;23.36;60.78;101262.63;3596565;40;20685;-81
2021/07/15 08:03:31;;;;;;;4.82;2.47;;;;;;;23.33;60.66;101266.19;3596623;40;20252;-81
2021/07/15 08:05:56;;;;;;;2.50;2.30;;;;;;;23.36;60.60;101263.50;3587225;40;20592;-81
2021/07/15 08:08:22;;;;;;;2.88;2.58;;;;;;;23.48;60.53;101275.41;3595707;40;20221;-81
2021/07/15 08:10:48;;;;;;;2.30;2.10;;;;;;;23.47;60.50;101271.91;3596206;40;20239;-81
2021/07/15 08:13:14;;;;;;;1.98;1.88;;;;;;;23.52;59.69;101282.28;3595672;40;20252;-81
2021/07/15 08:15:39;;;;;;;2.00;1.90;;;;;;;23.57;60.03;101293.47;3595904;40;20302;-81
2021/07/15 08:18:04;;;;;;;2.53;2.20;;;;;;;23.63;59.96;101298.53;3596170;40;20229;-82
2021/07/15 08:20:30;;;;;;;3.22;2.20;;;;;;;23.73;60.04;101300.88;3595995;40;20229;-81
2021/07/15 08:22:55;;;;;;;2.25;2.05;;;;;;;23.76;59.11;101302.53;3595606;40;20248;-81
2021/07/15 08:25:22;;;;;;;4.65;2.22;;;;;;;23.77;59.04;101299.88;3596066;40;20528;-81
2021/07/15 08:27:48;;;;;;;2.28;2.17;;;;;;;23.85;59.14;101297.06;3595768;40;20609;-82
2021/07/15 08:30:15;;;;;;;2.38;2.17;;;;;;;23.97;58.14;101292.38;3595891;40;20213;-81
2021/07/15 08:32:40;;;;;;;3.08;2.17;;;;;;;24.10;58.45;101279.78;3595121;40;20271;-81
2021/07/15 08:35:07;;;;;;;3.47;2.13;;;;;;;24.44;57.89;101280.53;3586114;40;20658;-82
2021/07/15 08:37:33;;;;;;;2.30;2.10;;;;;;;24.67;57.27;101280.69;3595466;40;20228;-81
2021/07/15 08:39:58;;;;;;;4.43;2.72;;;;;;;24.92;55.89;101279.88;3595686;40;21087;-82
2021/07/15 08:42:25;;;;;;;2.45;2.17;;;;;;;25.28;55.13;101273.41;3595422;40;20236;-82
2021/07/15 08:44:52;;;;;;;2.35;1.90;;;;;;;25.51;54.54;101283.16;3595414;40;20571;-81
2021/07/15 08:47:18;;;;;;;2.80;2.22;;;;;;;25.52;53.32;101287.47;3595643;40;20914;-81
2021/07/15 08:49:44;;;;;;;2.20;2.00;;;;;;;25.63;53.29;101287.94;3595194;40;20287;-81
2021/07/15 08:52:14;;;;;;;2.30;2.10;;;;;;;25.73;51.95;101284.06;3594852;40;20237;-82
2021/07/15 08:57:24;;;;;;;3.83;2.38;;;;;;;25.88;52.33;101284.38;3595423;40;20235;-81
2021/07/15 08:59:49;;;;;;;2.38;2.00;;;;;;;26.12;52.29;101283.56;3594800;40;20217;-81
2021/07/15 09:02:17;;;;;;;2.67;1.95;;;;;;;26.32;51.84;101280.16;3595031;40;20256;-82
2021/07/15 09:04:43;;;;;;;2.08;1.98;;;;;;;26.46;51.54;101283.97;3595758;40;20485;-81
2021/07/15 09:07:08;;;;;;;1.83;1.70;;;;;;;26.68;51.05;101281.38;3595242;40;20287;-81
2021/07/15 09:09:34;;;;;;;2.95;1.67;;;;;;;26.85;50.68;101284.22;3595189;40;20237;-81
2021/07/15 09:12:00;;;;;;;2.20;2.00;;;;;;;26.95;50.81;101277.66;3586373;40;20313;-81
2021/07/15 09:14:25;;;;;;;2.60;2.08;;;;;;;27.02;49.97;101274.72;3594709;40;20253;-81
2021/07/15 09:16:56;;;;;;;3.05;2.53;;;;;;;27.31;50.56;101270.91;3595142;40;20607;-79
2021/07/15 09:19:24;;;;;;;3.13;2.28;;;;;;;27.54;49.82;101282.13;3594717;40;20233;-80
2021/07/15 09:21:50;;;;;;;3.25;2.10;;;;;;;27.35;47.83;101277.75;3594636;40;20244;-81
2021/07/15 09:24:26;;;;;;;4.75;2.60;;;;;;;26.96;48.81;101282.84;3594884;40;20229;-82
2021/07/15 09:26:51;;;;;;;3.85;2.10;;;;;;;26.65;50.27;101282.38;3583988;40;20233;-81
2021/07/15 09:29:18;;;;;;;2.78;2.58;;;;;;;26.37;51.64;101286.09;3596611;40;20233;-82
2021/07/15 09:31:59;;;;;;;4.05;2.70;;;;;;;26.15;50.73;101287.84;3596050;40;20256;-80
2021/07/15 09:34:26;;;;;;;2.90;2.70;;;;;;;26.01;51.62;101288.31;3596115;40;20540;-80
2021/07/15 09:36:53;;;;;;;2.42;2.22;;;;;;;26.25;51.23;101289.19;3596562;40;20235;-79
2021/07/15 09:39:23;;;;;;;3.60;2.35;;;;;;;26.42;51.33;101294.63;3596245;40;20227;-82
2021/07/15 09:42:19;;;;;;;3.90;2.10;;;;;;;26.69;49.92;101294.47;3596775;40;20248;-79
2021/07/15 09:44:47;;;;;;;4.03;2.50;;;;;;;26.79;49.45;101290.56;3595249;40;20282;-81
2021/07/15 09:47:36;;;;;;;2.90;2.13;;;;;;;26.80;49.82;101296.69;3586998;40;20416;-81
2021/07/15 09:50:17;;;;;;;1.83;1.73;;;;;;;26.91;48.81;101297.97;3595950;40;20267;-80
2021/07/15 09:52:43;;;;;;;2.22;2.00;;;;;;;26.99;48.80;101290.59;3596531;40;20260;-81
2021/07/15 09:55:26;;;;;;;2.90;2.10;;;;;;;27.19;48.52;101288.06;3596432;40;20229;-80
2021/07/15 09:58:08;;;;;;;2.55;2.33;;;;;;;27.17;49.23;101292.47;3596770;40;20314;-81
2021/07/15 10:00:42;;;;;;;2.47;2.28;;;;;;;26.91;49.80;101300.59;3596077;40;20221;-80
2021/07/15 10:03:10;;;;;;;2.63;2.15;;;;;;;26.84;50.19;101299.13;3595922;40;20247;-80
2021/07/15 10:05:37;;;;;;;2.47;2.28;;;;;;;26.84;50.89;101296.47;3586374;40;20238;-80
2021/07/15 10:08:08;;;;;;;2.15;1.95;;;;;;;26.78;51.02;101299.38;3586467;40;20262;-81
2021/07/15 10:10:35;;;;;;;2.03;1.90;;;;;;;26.77;50.67;101296.78;3596003;40;20227;-80
2021/07/15 10:13:15;;;;;;;2.70;2.50;;;;;;;26.66;50.69;101301.63;3596219;40;20257;-81
2021/07/15 10:15:41;;;;;;;3.17;2.13;;;;;;;26.61;51.08;101299.16;3595817;40;20768;-80
2021/07/15 10:18:07;;;;;;;2.78;2.25;;;;;;;26.56;50.91;101293.25;3586869;40;20217;-82
2021/07/15 10:20:32;;;;;;;3.25;2.05;;;;;;;26.73;51.29;101280.28;3596039;40;20225;-81
2021/07/15 10:22:57;;;;;;;2.30;2.10;;;;;;;27.06;50.81;101281.56;3595854;40;20272;-81
2021/07/15 10:25:23;;;;;;;2.80;2.20;;;;;;;27.35;49.23;101277.75;3596267;40;20218;-80
2021/07/15 10:27:48;;;;;;;3.20;3.00;;;;;;;27.63;48.59;101288.81;3596066;40;20600;-81
2021/07/15 10:30:16;;;;;;;2.45;2.20;;;;;;;27.88;47.62;101281.53;3596104;40;20232;-80
2021/07/15 10:32:41;;;;;;;3.53;2.08;;;;;;;28.04;47.18;101275.50;3586594;40;20562;-80
2021/07/15 10:35:09;;;;;;;2.65;2.08;;;;;;;28.08;46.90;101276.22;3595722;40;20234;-81
2021/07/15 10:37:39;;;;;;;2.45;2.25;;;;;;;28.22;46.18;101276.44;3596407;40;20775;-83
2021/07/15 10:40:07;;;;;;;3.55;1.88;;;;;;;28.37;47.21;101283.66;3596434;40;20225;-81
2021/07/15 10:42:33;;;;;;;3.70;2.58;;;;;;;28.52;47.16;101280.34;3596087;40;20333;-80
2021/07/15 10:44:59;;;;;;;2.10;1.85;;;;;;;28.48;45.58;101279.63;3595664;40;20221;-81
2021/07/15 10:47:26;;;;;;;2.75;2.03;;;;;;;28.53;44.36;101279.41;3595989;40;20229;-80
2021/07/15 10:49:53;;;;;;;2.50;2.17;;;;;;;28.39;43.93;101282.69;3595956;40;20225;-81
2021/07/15 10:52:20;;;;;;;2.15;1.90;;;;;;;28.43;45.18;101281.63;3592231;40;20311;-81
2021/07/15 10:54:46;;;;;;;3.05;1.95;;;;;;;28.44;44.33;101282.47;3585088;40;20530;-81
2021/07/15 10:57:12;;;;;;;6.78;6.15;;;;;;;28.50;46.93;101285.66;3585488;40;20234;-82
2021/07/15 10:59:37;;;;;;;39.70;35.47;;;;;;;28.61;45.53;101291.31;3585646;40;20229;-81
2021/07/15 11:02:16;;;;;;;11.93;9.40;;;;;;;28.78;43.88;101290.50;3586090;40;20241;-81
2021/07/15 11:04:41;;;;;;;2.58;2.30;;;;;;;28.69;44.08;101290.94;3585604;40;20594;-80
2021/07/15 11:07:23;;;;;;;13.13;10.70;;;;;;;28.62;45.54;101295.66;3586187;40;20301;-82
2021/07/15 11:09:52;;;;;;;4.63;4.22;;;;;;;28.79;45.95;101305.38;3585790;40;20317;-80
2021/07/15 11:12:32;;;;;;;18.65;16.42;;;;;;;28.92;45.71;101303.88;3576437;40;20249;-81
2021/07/15 11:15:12;;;;;;;3.50;2.92;;;;;;;29.02;45.49;101311.28;3585559;40;20229;-81
2021/07/15 11:17:51;;;;;;;3.40;2.78;;;;;;;29.15;44.54;101306.28;3586009;40;20284;-81
2021/07/15 11:20:30;;;;;;;2.60;2.40;;;;;;;29.06;44.48;101307.56;3585449;40;20225;-81
2021/07/15 11:22:56;;;;;;;3.08;1.90;;;;;;;29.19;45.47;101305.19;3595380;40;20233;-80
2021/07/15 11:25:27;;;;;;;2.40;1.70;;;;;;;29.31;45.00;101308.06;3595198;40;20260;-80
2021/07/15 11:28:00;;;;;;;1.92;1.83;;;;;;;29.30;43.96;101310.78;3595438;40;20283;-81
2021/07/15 11:30:32;;;;;;;3.58;2.17;;;;;;;29.41;44.30;101311.06;3595714;40;20233;-80